Time;durP1;ratioP1;P1;durP2;ratioP2;P2;SDS_P1;SDS_P2;PMS_P1;PMS_P2;Temp;Humidity;BMP_temperature;BMP_pressure;BME280_temperature;BME280_humidity;BME280_pressure;Samples;Min_cycle;Max_cycle;Signal;HPM_P1;HPM_P2
2022/11/18 00:02:04;;;;;;;72.60;66.00;;;;;;;21.57;44.22;94010.66;6223730;28;104870;-64
2022/11/18 00:05:07;;;;;;;68.90;62.63;;;;;;;21.57;44.41;94014.09;6235094;27;103748;-63
2022/11/18 00:08:10;;;;;;;66.57;60.57;;;;;;;21.56;43.71;94011.75;6235268;28;107160;-63
2022/11/18 00:14:17;;;;;;;67.53;61.50;;;;;;;21.56;43.91;94015.19;6234563;27;103793;-63
2022/11/18 00:14:39;;;;;;;66.17;60.37;;;;;;;21.57;44.18;94013.31;6224231;27;103329;-65
2022/11/18 00:17:42;;;;;;;65.57;59.87;;;;;;;21.57;43.80;94013.31;6234766;28;103750;-63
2022/11/18 00:20:45;;;;;;;64.40;58.80;;;;;;;21.56;43.93;94019.75;6234922;27;104297;-63
2022/11/18 00:23:49;;;;;;;62.10;56.60;;;;;;;21.55;44.20;94005.66;6231846;27;103743;-65
2022/11/18 00:26:53;;;;;;;62.53;57.03;;;;;;;21.55;43.77;94010.97;6228280;28;103667;-65
2022/11/18 00:29:57;;;;;;;61.23;55.93;;;;;;;21.57;43.59;94007.97;6230397;28;103915;-63
2022/11/18 00:33:00;;;;;;;60.87;55.70;;;;;;;21.56;44.02;94001.09;6234563;27;103775;-63
2022/11/18 00:36:04;;;;;;;61.17;55.83;;;;;;;21.57;43.44;94005.31;6223857;28;103938;-63
2022/11/18 00:39:07;;;;;;;59.30;53.90;;;;;;;21.59;43.78;94014.53;6234073;27;103946;-63
2022/11/18 00:45:32;;;;;;;56.27;51.37;;;;;;;21.56;44.08;94004.53;6234735;27;103608;-64
2022/11/18 00:48:35;;;;;;;56.67;51.67;;;;;;;21.57;43.57;94000.00;6223358;28;106196;-64
2022/11/18 00:51:38;;;;;;;55.90;51.00;;;;;;;21.57;43.92;93997.34;6219950;28;104011;-64
2022/11/18 00:54:41;;;;;;;55.70;50.70;;;;;;;21.57;43.75;94005.31;6232853;28;103723;-64
2022/11/18 00:57:44;;;;;;;53.97;49.47;;;;;;;21.57;44.11;94000.78;6234956;27;103726;-65
2022/11/18 01:00:51;;;;;;;53.33;48.83;;;;;;;21.57;44.14;94007.97;6224829;27;104087;-64
2022/11/18 01:03:55;;;;;;;53.87;49.10;;;;;;;21.55;44.22;94000.31;6213760;28;104876;-64
2022/11/18 01:06:58;;;;;;;51.83;47.33;;;;;;;21.55;43.83;93995.00;6222467;28;103956;-63
2022/11/18 01:10:01;;;;;;;50.80;46.40;;;;;;;21.56;43.77;93998.44;6228797;28;104758;-63
2022/11/18 01:13:18;;;;;;;50.17;45.77;;;;;;;21.55;44.25;93996.88;6227997;28;104125;-62
2022/11/18 01:16:25;;;;;;;47.67;43.57;;;;;;;21.54;43.93;94004.09;6234633;27;104279;-63
2022/11/18 01:19:28;;;;;;;48.00;43.90;;;;;;;21.54;43.75;94004.09;6232126;28;104853;-64
2022/11/18 01:22:31;;;;;;;46.87;42.83;;;;;;;21.54;43.70;94004.09;6221248;28;103642;-64
2022/11/18 01:25:36;;;;;;;48.07;43.80;;;;;;;21.55;44.18;94004.88;6233337;27;103762;-65
2022/11/18 01:28:39;;;;;;;47.90;43.70;;;;;;;21.52;44.31;93996.44;6234603;27;104709;-64
2022/11/18 01:31:44;;;;;;;48.43;44.13;;;;;;;21.54;43.92;94000.66;6234598;28;104885;-64
2022/11/18 01:35:08;;;;;;;45.07;41.17;;;;;;;21.55;44.11;94010.19;6226687;28;104405;-64
2022/11/18 01:38:12;;;;;;;46.30;42.30;;;;;;;21.55;43.89;93999.56;6237514;27;103726;-63
2022/11/18 01:41:15;;;;;;;43.60;39.70;;;;;;;21.56;43.87;94003.75;6238343;27;103709;-64
2022/11/18 01:44:58;;;;;;;44.00;40.10;;;;;;;21.54;44.20;94000.66;6233428;28;104845;-64
2022/11/18 01:48:08;;;;;;;43.17;39.37;;;;;;;21.53;44.08;94002.53;6237550;28;103775;-65
2022/11/18 01:51:15;;;;;;;42.70;39.07;;;;;;;21.53;43.63;93999.88;6238298;27;103758;-64
2022/11/18 01:54:23;;;;;;;41.73;38.00;;;;;;;21.51;43.99;94000.22;6238191;28;103428;-64
2022/11/18 01:57:28;;;;;;;41.23;37.57;;;;;;;21.52;43.86;93999.09;6227635;27;103905;-64
2022/11/18 02:00:31;;;;;;;40.87;37.27;;;;;;;21.51;44.02;93997.53;6237278;27;103406;-64
2022/11/18 02:03:37;;;;;;;39.03;35.80;;;;;;;21.52;43.87;94011.63;6238369;27;106510;-64
2022/11/18 02:06:42;;;;;;;39.20;35.80;;;;;;;21.52;43.82;94003.66;6237800;28;104841;-64
2022/11/18 02:09:45;;;;;;;39.27;36.07;;;;;;;21.50;44.34;94003.94;6225528;27;103727;-64
2022/11/18 02:12:48;;;;;;;37.63;34.40;;;;;;;21.50;43.65;94011.94;6237928;27;103696;-64
2022/11/18 02:16:04;;;;;;;37.80;34.70;;;;;;;21.51;44.11;94007.41;6237316;27;103772;-65
2022/11/18 02:19:23;;;;;;;37.60;34.20;;;;;;;21.52;44.02;94008.97;6228281;27;104171;-64
2022/11/18 02:22:47;;;;;;;35.80;32.70;;;;;;;21.51;43.71;94002.88;6236530;27;103919;-64
2022/11/18 02:26:06;;;;;;;36.50;33.37;;;;;;;21.52;43.52;94009.75;6237091;28;104862;-64
2022/11/18 02:29:14;;;;;;;35.40;32.30;;;;;;;21.51;44.01;94013.50;6237324;27;103619;-65
2022/11/18 02:32:22;;;;;;;34.50;31.50;;;;;;;21.53;43.97;94013.19;6225867;28;103739;-64
2022/11/18 02:35:29;;;;;;;33.80;30.80;;;;;;;21.52;43.92;94003.66;6227936;28;103913;-64
2022/11/18 02:38:37;;;;;;;33.40;30.50;;;;;;;21.51;43.75;94010.84;6236877;28;106711;-64
2022/11/18 02:41:50;;;;;;;33.63;30.73;;;;;;;21.52;43.68;94006.31;6231352;27;103652;-64
2022/11/18 02:44:59;;;;;;;33.63;30.73;;;;;;;21.52;43.44;94007.09;6231664;27;103502;-67
2022/11/18 02:48:07;;;;;;;34.40;31.47;;;;;;;21.52;43.64;94003.66;6235518;27;104345;-67
2022/11/18 02:51:14;;;;;;;30.13;27.53;;;;;;;21.50;43.44;93990.63;6237714;27;104125;-67
2022/11/18 02:54:19;;;;;;;30.90;28.20;;;;;;;21.51;43.88;94002.88;6224460;28;105216;-67
2022/11/18 02:57:25;;;;;;;29.00;26.60;;;;;;;21.51;43.86;94002.88;6236782;27;103907;-67
2022/11/18 03:00:30;;;;;;;30.17;27.53;;;;;;;21.50;43.56;94001.28;6236701;28;103852;-63
2022/11/18 03:03:36;;;;;;;29.97;27.37;;;;;;;21.51;43.47;93986.91;6235881;27;103706;-64
2022/11/18 03:06:41;;;;;;;29.33;26.87;;;;;;;21.50;43.29;93995.97;6226055;28;104185;-64
2022/11/18 03:09:48;;;;;;;29.63;27.20;;;;;;;21.49;43.37;94018.38;6236532;27;104318;-64
2022/11/18 03:13:03;;;;;;;28.73;26.27;;;;;;;21.50;43.73;94016.47;6236513;28;103882;-65
2022/11/18 03:16:14;;;;;;;28.37;25.87;;;;;;;21.48;43.56;94014.16;6230150;27;103729;-65
2022/11/18 03:19:22;;;;;;;27.77;25.47;;;;;;;21.49;43.56;94007.72;6236118;28;104069;-64
2022/11/18 03:22:30;;;;;;;27.90;25.43;;;;;;;21.49;43.69;94002.41;6235458;27;103699;-64
2022/11/18 03:25:38;;;;;;;27.07;24.77;;;;;;;21.48;43.36;94000.84;6236149;28;103501;-65
2022/11/18 03:28:47;;;;;;;26.00;23.70;;;;;;;21.49;43.33;93994.41;6225067;27;103704;-63
2022/11/18 03:31:59;;;;;;;25.70;23.40;;;;;;;21.50;43.01;93989.88;6225791;28;104252;-63
2022/11/18 03:35:06;;;;;;;24.73;22.60;;;;;;;21.48;43.11;94006.16;6235293;27;104117;-65
2022/11/18 03:38:14;;;;;;;25.63;23.43;;;;;;;21.49;43.47;93997.06;6235552;27;103765;-63
2022/11/18 03:41:20;;;;;;;24.87;22.77;;;;;;;21.49;43.29;93991.75;6223582;28;104532;-64
2022/11/18 03:44:29;;;;;;;24.53;22.43;;;;;;;21.49;43.23;93998.94;6234398;27;104015;-64
2022/11/18 03:47:37;;;;;;;24.57;22.47;;;;;;;21.48;43.50;94000.06;6235343;28;103710;-64
2022/11/18 03:50:46;;;;;;;24.53;22.33;;;;;;;21.47;43.40;93993.97;6225044;27;104082;-64
2022/11/18 03:53:56;;;;;;;23.90;21.90;;;;;;;21.47;43.01;93988.63;6234278;27;103789;-63
2022/11/18 03:57:05;;;;;;;22.70;20.67;;;;;;;21.48;42.95;93992.06;6235082;28;103427;-63
2022/11/18 04:00:10;;;;;;;23.17;21.17;;;;;;;21.48;43.02;93992.84;6230162;28;103661;-65
2022/11/18 04:03:15;;;;;;;21.87;20.13;;;;;;;21.47;42.71;93978.00;6224190;28;103967;-65
2022/11/18 04:06:25;;;;;;;22.17;20.27;;;;;;;21.49;42.90;93978.44;6235009;28;104142;-63
2022/11/18 04:09:34;;;;;;;22.00;20.10;;;;;;;21.52;42.74;93991.13;6235033;28;103820;-63
2022/11/18 04:12:43;;;;;;;22.23;20.33;;;;;;;21.52;43.19;93985.00;6233110;28;103702;-64
2022/11/18 04:15:46;;;;;;;21.87;19.97;;;;;;;21.52;43.42;93980.47;6228614;27;103292;-65
2022/11/18 04:18:50;;;;;;;21.77;19.87;;;;;;;21.52;43.05;94008.97;6231916;27;103843;-65
2022/11/18 04:21:53;;;;;;;21.33;19.53;;;;;;;21.54;43.66;93992.66;6234353;27;104068;-65
2022/11/18 04:24:56;;;;;;;19.20;17.50;;;;;;;21.54;43.72;94004.09;6225464;27;104925;-65
2022/11/18 04:27:59;;;;;;;18.87;17.17;;;;;;;21.57;43.33;93976.03;6234820;27;104140;-66
2022/11/18 04:31:02;;;;;;;18.20;16.60;;;;;;;21.61;43.19;94004.34;6231025;28;103567;-67
2022/11/18 04:34:07;;;;;;;17.83;16.23;;;;;;;21.59;43.56;94000.44;6234152;27;103586;-66
2022/11/18 04:37:10;;;;;;;19.27;17.57;;;;;;;21.59;43.85;93990.56;6204603;28;103683;-66
2022/11/18 04:40:13;;;;;;;19.30;17.50;;;;;;;21.61;43.31;94022.19;6219291;28;103694;-66
2022/11/18 04:43:16;;;;;;;16.83;15.33;;;;;;;21.60;43.73;94002.78;6227222;27;103993;-66
2022/11/18 04:46:19;;;;;;;17.03;15.63;;;;;;;21.59;43.73;93997.78;6235133;28;103939;-66
2022/11/18 04:49:25;;;;;;;17.30;15.90;;;;;;;21.60;43.55;94009.97;6224273;28;103964;-66
2022/11/18 04:52:28;;;;;;;18.33;16.70;;;;;;;21.61;44.33;94024.84;6231544;28;103738;-66
2022/11/18 04:55:31;;;;;;;17.20;15.60;;;;;;;21.59;44.08;93995.13;6234009;27;105340;-65
2022/11/18 04:58:34;;;;;;;17.50;16.00;;;;;;;21.60;44.49;94007.31;6217569;27;104773;-66
2022/11/18 05:01:38;;;;;;;16.80;15.30;;;;;;;20.90;43.07;94013.16;6228490;27;104195;-65
2022/11/18 05:04:42;;;;;;;17.10;15.60;;;;;;;21.06;42.96;94012.63;6224366;27;103664;-66
2022/11/18 05:07:45;;;;;;;16.77;15.27;;;;;;;21.12;42.83;93995.34;6232873;28;103862;-66
2022/11/18 05:10:49;;;;;;;16.73;15.13;;;;;;;21.20;42.44;94013.94;6227502;27;103840;-66
2022/11/18 05:13:51;;;;;;;17.30;15.70;;;;;;;21.30;41.97;94006.63;6237449;27;104155;-66
2022/11/18 05:16:55;;;;;;;15.90;14.50;;;;;;;21.39;40.92;94020.66;6113765;27;103794;-65
2022/11/18 05:19:59;;;;;;;17.20;14.87;;;;;;;21.48;40.85;94006.16;6237105;27;104409;-68
2022/11/18 05:23:02;;;;;;;17.23;14.13;;;;;;;21.55;41.17;94010.97;6228741;28;104926;-67
2022/11/18 05:26:06;;;;;;;14.07;12.77;;;;;;;21.55;40.90;94021.63;6237940;28;104782;-65
2022/11/18 05:29:09;;;;;;;15.23;13.90;;;;;;;21.61;41.43;94020.31;6238919;27;103827;-66
2022/11/18 05:32:12;;;;;;;15.07;13.50;;;;;;;21.65;41.21;94017.75;6239383;27;103681;-66
2022/11/18 05:35:17;;;;;;;14.23;12.93;;;;;;;21.68;41.01;94023.22;6228765;28;106779;-66
2022/11/18 05:38:20;;;;;;;15.53;14.13;;;;;;;21.68;41.45;94028.56;6237784;27;103710;-66
2022/11/18 05:44:44;;;;;;;13.87;12.57;;;;;;;21.69;41.31;94026.66;6227117;28;103506;-66
2022/11/18 05:47:59;;;;;;;14.07;12.87;;;;;;;21.71;41.59;94016.47;6235931;27;103664;-66
2022/11/18 05:51:04;;;;;;;15.40;13.90;;;;;;;21.70;41.72;94020.25;6235984;27;103768;-66
2022/11/18 05:54:09;;;;;;;14.53;13.20;;;;;;;21.70;41.53;94014.91;6237612;27;103261;-66
2022/11/18 05:57:12;;;;;;;15.63;14.13;;;;;;;21.70;41.88;94018.34;6227959;27;104222;-65
2022/11/18 06:00:17;;;;;;;17.00;15.37;;;;;;;21.71;41.94;94021.78;6238522;27;103743;-66
2022/11/18 06:03:24;;;;;;;17.77;16.07;;;;;;;21.70;41.62;94002.38;6238970;27;104384;-66
2022/11/18 06:06:35;;;;;;;17.70;16.10;;;;;;;21.69;41.69;94008.81;6238025;28;103655;-65
2022/11/18 06:09:42;;;;;;;17.80;16.10;;;;;;;21.69;42.20;94013.34;6227152;27;106037;-66
2022/11/18 06:12:49;;;;;;;17.20;15.70;;;;;;;21.66;42.34;94006.00;6237682;28;104229;-65
2022/11/18 06:15:53;;;;;;;17.67;16.07;;;;;;;21.64;42.47;94016.97;6238609;27;104210;-65
2022/11/18 06:18:56;;;;;;;18.00;16.30;;;;;;;21.66;42.54;94016.66;6227414;27;103660;-66
2022/11/18 06:22:01;;;;;;;17.50;16.00;;;;;;;21.62;42.30;94013.88;6237236;27;103491;-65
2022/11/18 06:25:04;;;;;;;17.23;15.63;;;;;;;21.61;42.14;94007.00;6238153;28;103858;-66
2022/11/18 06:28:10;;;;;;;18.33;16.63;;;;;;;21.58;42.52;94001.56;6237517;27;103726;-65
2022/11/18 06:31:15;;;;;;;17.30;15.67;;;;;;;21.56;42.66;94007.19;6227959;28;105633;-65
2022/11/18 06:34:18;;;;;;;17.43;15.93;;;;;;;21.55;42.28;94007.53;6237271;27;103612;-65
2022/11/18 06:37:23;;;;;;;18.20;16.60;;;;;;;21.58;42.66;94001.56;6237452;27;103797;-65
2022/11/18 06:40:26;;;;;;;16.90;15.40;;;;;;;21.57;42.27;94000.00;6237876;27;104277;-65
2022/11/18 06:43:40;;;;;;;17.00;15.30;;;;;;;21.56;42.94;93991.22;6226544;28;103378;-65
2022/11/18 06:46:55;;;;;;;17.20;15.67;;;;;;;21.56;42.82;93995.78;6238132;28;104726;-65
2022/11/18 06:49:59;;;;;;;19.20;17.27;;;;;;;21.54;42.70;93990.78;6237001;27;103642;-67
2022/11/18 06:53:03;;;;;;;16.50;15.00;;;;;;;21.55;42.63;93995.00;6227510;27;103733;-64
2022/11/18 06:56:08;;;;;;;16.00;14.50;;;;;;;21.56;42.46;94006.44;6237789;28;106157;-66
2022/11/18 06:59:11;;;;;;;17.43;15.67;;;;;;;21.56;42.70;94001.09;6236873;27;103908;-66
2022/11/18 07:02:17;;;;;;;16.73;15.03;;;;;;;21.57;42.59;94013.31;6237564;27;103857;-65
2022/11/18 07:05:20;;;;;;;16.37;14.90;;;;;;;21.59;42.94;94016.41;6226676;27;103691;-66
2022/11/18 07:08:25;;;;;;;15.70;14.30;;;;;;;21.59;42.69;94019.06;6237518;28;104824;-64
2022/11/18 07:11:28;;;;;;;16.20;14.70;;;;;;;21.59;42.47;94008.44;6237279;28;104086;-65
2022/11/18 07:14:32;;;;;;;16.63;15.00;;;;;;;21.59;43.04;94013.75;6238026;27;103879;-65
2022/11/18 07:17:35;;;;;;;16.53;15.03;;;;;;;21.58;43.02;94007.66;6226639;28;104853;-66
2022/11/18 07:20:38;;;;;;;16.80;15.23;;;;;;;21.60;42.92;94000.13;6236697;27;103846;-64
2022/11/18 07:23:42;;;;;;;15.47;14.07;;;;;;;21.59;43.07;94008.44;6236779;28;106898;-65
2022/11/18 07:26:46;;;;;;;16.73;15.23;;;;;;;21.59;42.96;93992.47;6230236;27;103747;-64
2022/11/18 07:29:49;;;;;;;16.00;14.50;;;;;;;21.62;43.10;93984.59;6231439;27;103854;-65
2022/11/18 07:32:52;;;;;;;16.53;14.93;;;;;;;21.66;43.00;93963.41;6237122;27;104911;-65
2022/11/18 07:35:55;;;;;;;15.63;14.27;;;;;;;21.65;42.74;93977.81;6236066;27;103841;-65
2022/11/18 07:39:01;;;;;;;16.33;14.67;;;;;;;21.63;43.01;93990.69;6226835;27;106302;-65
2022/11/18 07:42:04;;;;;;;15.57;14.20;;;;;;;21.70;42.89;93959.78;6236052;28;104786;-65
2022/11/18 07:45:09;;;;;;;15.73;14.33;;;;;;;21.67;42.89;93962.28;6236647;27;104032;-65
2022/11/18 07:48:12;;;;;;;16.33;14.80;;;;;;;21.66;43.13;93966.06;6236299;28;103675;-65
2022/11/18 07:51:16;;;;;;;15.20;13.70;;;;;;;21.66;43.14;93992.69;6226087;27;104154;-66
2022/11/18 07:54:21;;;;;;;14.83;13.53;;;;;;;21.66;43.14;93958.09;6236449;27;103781;-66
2022/11/18 07:57:24;;;;;;;15.37;13.97;;;;;;;21.66;43.05;93963.41;6235978;27;104029;-66
2022/11/18 08:00:27;;;;;;;15.53;14.17;;;;;;;21.65;43.33;93978.59;6231863;27;103761;-67
2022/11/18 08:03:30;;;;;;;14.27;12.97;;;;;;;21.67;43.11;93994.25;6229894;28;106167;-66
2022/11/18 08:06:34;;;;;;;16.53;14.97;;;;;;;21.66;43.15;93993.47;6236385;27;103722;-64
2022/11/18 08:09:38;;;;;;;15.60;14.30;;;;;;;21.67;43.51;93965.72;6235936;27;104231;-65
2022/11/18 08:12:41;;;;;;;15.10;13.60;;;;;;;21.71;43.42;93989.84;6226011;27;106447;-65
2022/11/18 08:15:44;;;;;;;14.90;13.57;;;;;;;21.70;43.04;94026.34;6236022;27;103872;-65
2022/11/18 08:18:48;;;;;;;14.60;13.30;;;;;;;21.67;43.35;94018.22;6235483;28;103919;-65
2022/11/18 08:21:51;;;;;;;15.30;14.00;;;;;;;21.70;43.34;94005.03;6235481;27;104058;-64
2022/11/18 08:24:56;;;;;;;15.33;13.83;;;;;;;21.79;43.44;94007.59;6225289;27;104060;-66
2022/11/18 08:27:59;;;;;;;14.63;13.43;;;;;;;21.81;42.94;93994.72;6235492;28;103807;-64
2022/11/18 08:31:09;;;;;;;15.70;14.20;;;;;;;21.79;43.38;93996.94;6235480;27;103754;-65
2022/11/18 08:34:12;;;;;;;14.87;13.57;;;;;;;21.76;43.56;93978.97;6235623;27;104795;-65
2022/11/18 08:37:15;;;;;;;13.53;12.40;;;;;;;21.79;43.39;93975.66;6225570;27;103720;-65
2022/11/18 08:40:20;;;;;;;14.97;13.67;;;;;;;21.81;43.51;93974.22;6239030;27;103661;-64
2022/11/18 08:43:23;;;;;;;14.73;13.40;;;;;;;21.87;42.81;93966.06;6240157;28;104253;-65
2022/11/18 08:46:26;;;;;;;14.67;13.47;;;;;;;21.89;43.13;93955.84;6232917;27;103673;-65
2022/11/18 08:49:29;;;;;;;14.97;13.57;;;;;;;21.91;43.31;93958.97;6237662;27;103701;-66
2022/11/18 08:52:34;;;;;;;14.27;12.97;;;;;;;21.96;43.10;93940.84;6239836;27;103191;-65
2022/11/18 08:55:39;;;;;;;14.47;13.10;;;;;;;21.96;43.30;93932.09;6239098;27;103878;-68
2022/11/18 08:58:42;;;;;;;14.77;13.47;;;;;;;21.95;43.20;93915.34;6228674;27;104929;-65
2022/11/18 09:01:45;;;;;;;14.27;13.07;;;;;;;21.94;43.42;93913.00;6239799;27;104774;-64
2022/11/18 09:04:49;;;;;;;14.50;13.27;;;;;;;21.90;43.59;93896.91;6239330;27;103703;-64
2022/11/18 09:07:52;;;;;;;13.67;12.47;;;;;;;21.89;43.81;93889.25;6239749;27;103969;-64
2022/11/18 09:10:57;;;;;;;14.57;13.33;;;;;;;21.89;43.55;93900.69;6228287;27;103838;-65
2022/11/18 09:14:00;;;;;;;13.40;12.10;;;;;;;21.82;43.69;93884.47;6239708;27;103759;-65
2022/11/18 09:17:24;;;;;;;14.50;13.20;;;;;;;21.78;43.59;93883.56;6239349;28;103460;-65
2022/11/18 09:20:27;;;;;;;13.47;12.17;;;;;;;21.74;44.02;93882.66;6229935;27;104307;-65
2022/11/18 09:23:31;;;;;;;13.37;12.20;;;;;;;21.71;43.63;93900.09;6238547;27;104662;-65
2022/11/18 09:26:36;;;;;;;13.97;12.70;;;;;;;21.70;43.83;93887.09;6240260;27;103897;-65
2022/11/18 09:29:39;;;;;;;13.13;11.93;;;;;;;21.73;44.16;93881.13;6240183;28;103990;-65
2022/11/18 09:32:42;;;;;;;13.50;12.20;;;;;;;21.74;43.89;93882.66;6227696;28;105142;-65
2022/11/18 09:35:45;;;;;;;12.63;11.53;;;;;;;21.75;43.97;93892.22;6239131;27;103884;-65
2022/11/18 09:38:49;;;;;;;13.07;11.97;;;;;;;21.74;43.95;93878.13;6239090;27;103740;-65
2022/11/18 09:42:04;;;;;;;12.80;11.60;;;;;;;21.73;44.06;93879.22;6238816;27;106398;-65
2022/11/18 09:45:18;;;;;;;12.90;11.73;;;;;;;21.74;44.32;93856.03;6227981;27;104243;-65
2022/11/18 09:51:48;;;;;;;13.90;12.60;;;;;;;21.81;43.92;93841.06;6237601;27;103800;-64
2022/11/18 09:54:51;;;;;;;13.40;12.20;;;;;;;21.85;43.88;93819.91;6228566;28;107012;-65
2022/11/18 09:57:58;;;;;;;14.37;13.00;;;;;;;21.91;43.82;93831.88;6239288;27;108162;-65
2022/11/18 10:01:03;;;;;;;13.80;12.50;;;;;;;21.96;44.18;93821.00;6238815;28;104045;-65
2022/11/18 10:04:13;;;;;;;13.80;12.60;;;;;;;21.98;43.91;93818.78;6238422;28;104531;-65
2022/11/18 10:07:22;;;;;;;14.00;12.80;;;;;;;22.05;43.76;93816.34;6228036;28;103402;-65
2022/11/18 10:10:34;;;;;;;15.27;13.70;;;;;;;22.06;43.73;93812.56;6238116;28;104706;-65
2022/11/18 10:13:53;;;;;;;13.80;12.60;;;;;;;22.02;43.50;93842.88;6238394;27;103825;-65
2022/11/18 10:17:03;;;;;;;13.93;12.60;;;;;;;22.00;44.06;93805.91;6233178;28;106397;-65
2022/11/18 10:20:30;;;;;;;13.17;12.07;;;;;;;21.96;43.71;93831.66;6233945;27;104217;-65
2022/11/18 10:23:42;;;;;;;14.10;12.80;;;;;;;21.96;43.76;93836.19;6236924;27;103785;-65
2022/11/18 10:26:45;;;;;;;14.23;12.97;;;;;;;21.97;44.02;93811.91;6238365;28;103678;-65
2022/11/18 10:29:54;;;;;;;14.27;12.97;;;;;;;21.94;43.71;93788.59;6227384;28;103515;-65
2022/11/18 10:32:59;;;;;;;14.10;12.90;;;;;;;21.91;43.99;93788.50;6237793;28;103712;-65
2022/11/18 10:36:12;;;;;;;13.90;12.60;;;;;;;21.83;43.88;93766.19;6238603;28;106099;-65
2022/11/18 10:39:16;;;;;;;14.50;13.20;;;;;;;21.84;43.97;93770.41;6233755;27;104114;-65
2022/11/18 10:42:27;;;;;;;13.27;12.10;;;;;;;21.81;44.23;93765.72;6231948;28;106523;-65
2022/11/18 10:45:33;;;;;;;15.20;13.90;;;;;;;21.78;43.79;93767.16;6237891;27;103816;-65
2022/11/18 10:48:36;;;;;;;14.70;13.40;;;;;;;21.77;43.78;93749.63;6237831;28;104854;-65
2022/11/18 10:51:41;;;;;;;14.70;13.40;;;;;;;21.76;43.92;93752.63;6227306;27;103822;-65
2022/11/18 10:54:45;;;;;;;14.30;12.97;;;;;;;21.75;43.83;93757.19;6237784;28;103892;-65
2022/11/18 10:57:50;;;;;;;14.43;13.13;;;;;;;21.76;43.83;93747.31;6237717;27;103860;-65
2022/11/18 11:01:05;;;;;;;14.17;12.87;;;;;;;21.76;43.69;93732.13;6237341;27;104738;-65
2022/11/18 11:04:19;;;;;;;15.47;14.07;;;;;;;21.76;43.92;93742.00;6225748;28;103776;-64
2022/11/18 11:07:28;;;;;;;14.00;12.70;;;;;;;21.76;44.17;93726.00;6237625;27;103679;-64
2022/11/18 11:10:31;;;;;;;13.77;12.57;;;;;;;21.75;43.71;93724.47;6237116;28;104792;-64
2022/11/18 11:13:40;;;;;;;14.50;13.13;;;;;;;21.78;43.84;93726.44;6231978;27;103921;-64
2022/11/18 11:16:50;;;;;;;14.83;13.43;;;;;;;21.77;43.60;93725.69;6231929;27;104298;-64
2022/11/18 11:20:02;;;;;;;15.13;13.83;;;;;;;21.77;43.60;93739.00;6237775;28;103495;-64
2022/11/18 11:23:09;;;;;;;15.33;13.83;;;;;;;21.77;43.64;93730.22;6236350;28;103945;-64
2022/11/18 11:26:20;;;;;;;15.20;13.80;;;;;;;21.78;43.67;93719.22;6226318;28;104018;-64
2022/11/18 11:30:07;;;;;;;13.73;12.47;;;;;;;21.78;43.59;93713.13;6236910;27;103304;-64
2022/11/18 11:33:31;;;;;;;15.33;13.87;;;;;;;21.77;44.02;93724.91;6237085;28;104242;-66
2022/11/18 11:36:45;;;;;;;14.10;12.80;;;;;;;21.77;43.66;93712.38;6230955;27;103893;-66
2022/11/18 11:40:12;;;;;;;14.70;13.40;;;;;;;21.76;43.55;93704.72;6235706;27;105274;-64
2022/11/18 11:43:32;;;;;;;14.07;12.67;;;;;;;21.75;44.03;93701.28;6236681;27;103662;-66
2022/11/18 11:46:43;;;;;;;13.73;12.43;;;;;;;21.75;43.94;93706.59;6236921;28;106609;-64
2022/11/18 11:49:53;;;;;;;14.67;13.37;;;;;;;21.76;43.51;93707.38;6226873;27;103818;-65
2022/11/18 11:53:14;;;;;;;13.80;12.50;;;;;;;21.76;43.59;93697.50;6236082;27;103343;-65
2022/11/18 11:56:25;;;;;;;14.13;12.83;;;;;;;21.75;43.91;93698.59;6236444;27;103828;-65
2022/11/18 11:59:37;;;;;;;14.70;13.40;;;;;;;21.75;43.97;93703.16;6227310;27;103816;-65
2022/11/18 12:03:04;;;;;;;14.57;13.20;;;;;;;21.74;43.52;93702.38;6236284;27;104016;-65
2022/11/18 12:06:10;;;;;;;14.00;12.70;;;;;;;21.74;43.63;93696.28;6237143;27;103937;-66
2022/11/18 12:09:19;;;;;;;14.43;13.10;;;;;;;21.75;43.72;93695.19;6236325;27;104832;-65
2022/11/18 12:12:37;;;;;;;14.20;12.80;;;;;;;21.74;43.98;93709.59;6224723;27;103713;-65
2022/11/18 12:15:47;;;;;;;14.33;13.00;;;;;;;21.73;43.52;93684.84;6235966;27;103913;-65
2022/11/18 12:18:57;;;;;;;14.87;13.47;;;;;;;21.73;43.85;93687.53;6236676;28;104923;-65
2022/11/18 12:22:03;;;;;;;13.13;12.03;;;;;;;21.72;43.45;93688.63;6230673;27;103862;-65
2022/11/18 12:25:53;;;;;;;14.00;12.67;;;;;;;21.73;43.92;93689.41;6228835;28;104119;-65
2022/11/18 12:29:22;;;;;;;12.90;11.80;;;;;;;21.73;43.94;93678.75;6210941;28;104274;-64
2022/11/18 12:32:35;;;;;;;13.60;12.37;;;;;;;21.75;43.79;93665.88;6211293;28;103720;-65
2022/11/18 12:35:38;;;;;;;14.30;12.90;;;;;;;21.73;43.53;93657.47;6203057;28;103932;-64
2022/11/18 12:38:43;;;;;;;13.37;12.07;;;;;;;21.75;43.46;93674.66;6210581;28;104942;-65
2022/11/18 12:45:55;;;;;;;12.10;11.10;;;;;;;21.74;43.72;93667.00;6199263;28;107161;-64
2022/11/18 12:49:38;;;;;;;12.10;11.00;;;;;;;21.73;44.09;93641.50;6211503;28;103909;-64
2022/11/18 12:52:47;;;;;;;12.30;11.30;;;;;;;21.73;44.30;93658.22;6212174;28;103492;-64
2022/11/18 12:55:52;;;;;;;13.47;12.17;;;;;;;21.73;44.16;93657.47;6206651;28;103697;-65
2022/11/18 12:58:58;;;;;;;14.27;12.83;;;;;;;21.73;43.73;93636.94;6205618;28;105066;-64
2022/11/18 13:02:15;;;;;;;13.33;12.03;;;;;;;21.73;44.16;93612.19;6210636;28;103410;-65
2022/11/18 13:05:21;;;;;;;13.00;11.70;;;;;;;21.73;44.18;93630.84;6210740;28;103868;-64
2022/11/18 13:08:24;;;;;;;13.00;11.70;;;;;;;21.73;43.97;93625.50;6199413;28;103798;-65
2022/11/18 13:11:46;;;;;;;12.80;11.60;;;;;;;21.72;43.77;93621.31;6210611;28;103857;-64
2022/11/18 13:18:20;;;;;;;12.53;11.43;;;;;;;21.73;44.15;93596.22;6180238;28;103725;-64
2022/11/18 13:24:47;;;;;;;12.77;11.57;;;;;;;21.74;44.08;93622.50;6209133;28;103864;-64
2022/11/18 13:28:02;;;;;;;11.90;10.80;;;;;;;21.75;43.69;93608.09;6214265;28;103872;-65
2022/11/18 13:31:14;;;;;;;12.53;11.40;;;;;;;21.74;43.62;93611.09;6204009;28;104025;-65
2022/11/18 13:34:20;;;;;;;11.33;10.33;;;;;;;21.74;43.61;93611.09;6213825;28;103970;-64
2022/11/18 13:37:25;;;;;;;12.80;11.50;;;;;;;21.74;43.90;93600.44;6213450;28;103716;-64
2022/11/18 13:40:30;;;;;;;12.63;11.53;;;;;;;21.74;43.58;93595.09;6213572;28;104179;-64
2022/11/18 13:43:35;;;;;;;11.47;10.47;;;;;;;21.77;43.71;93583.78;6203245;28;103641;-64
2022/11/18 13:46:40;;;;;;;11.70;10.57;;;;;;;21.73;43.79;93578.38;6214141;28;103743;-66
2022/11/18 13:49:54;;;;;;;10.60;9.60;;;;;;;21.76;43.69;93590.22;6214937;28;103619;-66
2022/11/18 13:53:07;;;;;;;11.90;10.63;;;;;;;21.76;43.76;93606.19;6203053;28;103777;-65
2022/11/18 13:56:19;;;;;;;10.43;9.60;;;;;;;21.77;43.82;93607.75;6213802;28;103636;-66
2022/11/18 13:59:25;;;;;;;11.50;10.57;;;;;;;21.77;44.05;93599.75;6213815;28;104582;-65
2022/11/18 14:02:28;;;;;;;11.77;10.67;;;;;;;21.77;43.85;93600.53;6213492;28;103627;-65
2022/11/18 14:05:31;;;;;;;11.20;10.10;;;;;;;21.77;43.89;93583.78;6203001;28;104072;-65
2022/11/18 14:08:36;;;;;;;11.00;10.00;;;;;;;21.77;44.26;93578.44;6213338;28;103944;-65
2022/11/18 14:11:42;;;;;;;11.03;10.10;;;;;;;21.77;44.31;93562.47;6213595;28;102808;-65
2022/11/18 14:14:47;;;;;;;11.60;9.73;;;;;;;21.74;43.84;93553.28;6212423;28;103731;-64
2022/11/18 14:17:52;;;;;;;10.20;9.30;;;;;;;21.77;44.13;93535.84;6205073;28;104916;-64
2022/11/18 14:20:56;;;;;;;10.43;9.43;;;;;;;21.75;43.82;93549.50;6213282;28;103852;-64
2022/11/18 14:23:59;;;;;;;9.40;8.40;;;;;;;21.80;43.63;93573.22;6212734;28;103845;-64
2022/11/18 14:27:35;;;;;;;10.70;9.60;;;;;;;21.77;43.62;93557.16;6203121;28;104571;-64
2022/11/18 14:30:41;;;;;;;8.70;7.90;;;;;;;21.76;44.01;93566.25;6213346;28;103421;-64
2022/11/18 14:34:05;;;;;;;9.03;8.23;;;;;;;21.76;43.44;93569.69;6212856;28;103719;-64